createdAt,value
2018-08-18T00:00:19.083Z,23.60
2018-08-18T00:02:48.004Z,23.60
2018-08-18T00:05:17.520Z,23.60
2018-08-18T00:07:46.753Z,23.50
2018-08-18T00:10:21.256Z,23.50
2018-08-18T00:12:50.145Z,23.50
2018-08-18T00:15:19.527Z,23.50
2018-08-18T00:17:50.307Z,23.40
2018-08-18T00:20:23.530Z,23.50
2018-08-18T00:22:52.428Z,23.40
2018-08-18T00:25:21.231Z,23.40
2018-08-18T00:27:50.587Z,23.40
2018-08-18T00:30:24.665Z,23.40
2018-08-18T00:32:55.477Z,23.40
2018-08-18T00:35:24.511Z,23.40
2018-08-18T00:37:53.964Z,23.50
2018-08-18T00:40:22.827Z,23.30
2018-08-18T00:42:51.656Z,23.40
2018-08-18T00:45:20.473Z,23.30
2018-08-18T00:47:49.498Z,23.40
2018-08-18T00:50:44.094Z,23.40
2018-08-18T00:53:15.110Z,23.30
2018-08-18T00:55:43.974Z,23.30
2018-08-18T00:58:21.796Z,23.30
2018-08-18T01:00:56.098Z,23.30
2018-08-18T01:03:24.931Z,23.30
2018-08-18T01:05:53.926Z,23.30
2018-08-18T01:08:22.766Z,23.30
2018-08-18T01:10:51.691Z,23.30
2018-08-18T01:13:20.539Z,23.30
2018-08-18T01:15:49.306Z,23.30
2018-08-18T01:18:18.210Z,23.30
2018-08-18T01:20:47.022Z,23.30
2018-08-18T01:23:15.831Z,23.30
2018-08-18T01:25:44.659Z,23.30
2018-08-18T01:28:13.846Z,23.30
2018-08-18T01:30:42.657Z,23.30
2018-08-18T01:33:11.479Z,23.30
2018-08-18T01:35:40.274Z,23.30
2018-08-18T01:38:09.094Z,23.30
2018-08-18T01:40:38.079Z,23.40
2018-08-18T01:43:07.742Z,23.40
2018-08-18T01:45:36.552Z,23.40
2018-08-18T01:48:05.606Z,23.40
2018-08-18T01:50:34.418Z,23.40
2018-08-18T01:53:03.222Z,23.40
2018-08-18T01:55:32.058Z,23.40
2018-08-18T01:58:00.860Z,23.40
2018-08-18T02:00:29.679Z,23.40
2018-08-18T02:02:58.664Z,23.40
2018-08-18T02:05:27.477Z,23.40
2018-08-18T02:07:56.285Z,23.40
2018-08-18T02:10:25.090Z,23.40
2018-08-18T02:13:04.109Z,23.40
2018-08-18T02:15:32.997Z,23.40
2018-08-18T02:18:01.814Z,23.40
2018-08-18T02:20:30.650Z,23.30
2018-08-18T02:22:59.677Z,23.30
2018-08-18T02:25:28.481Z,23.30
2018-08-18T02:27:57.298Z,23.30
2018-08-18T02:30:26.777Z,23.20
2018-08-18T02:32:55.607Z,23.20
2018-08-18T02:35:24.491Z,23.20
2018-08-18T02:37:53.391Z,23.20
2018-08-18T02:40:22.223Z,23.10
2018-08-18T02:42:51.276Z,23.10
2018-08-18T02:45:20.306Z,23.10
2018-08-18T02:48:00.669Z,23.10
2018-08-18T02:50:29.534Z,23.10
2018-08-18T02:52:58.324Z,23.10
2018-08-18T02:55:27.121Z,23.10
2018-08-18T02:57:55.949Z,23.10
2018-08-18T03:00:30.343Z,23.00
2018-08-18T03:02:59.455Z,23.10
2018-08-18T03:05:28.307Z,23.00
2018-08-18T03:07:57.265Z,23.00
2018-08-18T03:10:26.934Z,22.90
2018-08-18T03:12:59.584Z,22.90
2018-08-18T03:16:09.872Z,22.90
2018-08-18T03:18:43.810Z,22.90
2018-08-18T03:21:12.977Z,22.80
2018-08-18T03:23:59.517Z,22.70
2018-08-18T03:26:33.677Z,22.70
2018-08-18T03:29:03.024Z,22.60
2018-08-18T03:31:32.098Z,22.60
2018-08-18T03:34:00.890Z,22.60
2018-08-18T03:36:32.616Z,22.50
2018-08-18T03:39:01.413Z,22.50
2018-08-18T03:41:30.734Z,22.50
2018-08-18T03:43:59.636Z,22.50
2018-08-18T03:46:28.466Z,22.50
2018-08-18T03:48:57.310Z,22.50
2018-08-18T03:51:31.529Z,22.50
2018-08-18T03:54:01.230Z,22.50
2018-08-18T03:56:30.592Z,22.50
2018-08-18T03:58:59.810Z,22.40
2018-08-18T04:01:48.371Z,22.40
2018-08-18T04:04:18.798Z,22.40
2018-08-18T04:06:49.082Z,22.40
2018-08-18T04:09:22.290Z,22.40
2018-08-18T04:11:51.516Z,22.40
2018-08-18T04:14:27.754Z,22.40
2018-08-18T04:16:57.146Z,22.40
2018-08-18T04:19:26.243Z,22.40
2018-08-18T04:21:55.906Z,22.40
2018-08-18T04:24:32.311Z,22.40
2018-08-18T04:27:02.112Z,22.40
2018-08-18T04:29:30.939Z,22.30
2018-08-18T04:32:01.070Z,22.30
2018-08-18T04:34:29.924Z,22.30
2018-08-18T04:37:00.004Z,22.20
2018-08-18T04:39:28.840Z,22.20
2018-08-18T04:41:57.842Z,22.10
2018-08-18T04:44:27.709Z,22.10
2018-08-18T04:46:56.513Z,22.10
2018-08-18T04:49:25.332Z,22.10
2018-08-18T04:51:54.148Z,22.10
2018-08-18T04:54:22.945Z,22.10
2018-08-18T04:56:51.848Z,22.00
2018-08-18T04:59:22.823Z,22.00
2018-08-18T05:01:51.626Z,22.00
2018-08-18T05:04:20.637Z,22.00
2018-08-18T05:06:49.550Z,22.00
2018-08-18T05:09:18.399Z,22.00
2018-08-18T05:11:47.329Z,22.00
2018-08-18T05:14:16.108Z,22.00
2018-08-18T05:16:44.925Z,22.00
2018-08-18T05:19:13.778Z,21.90
2018-08-18T05:21:42.565Z,21.90
2018-08-18T05:24:25.207Z,21.90
2018-08-18T05:26:55.179Z,21.90
2018-08-18T05:29:24.000Z,21.90
2018-08-18T05:31:52.820Z,21.90
2018-08-18T05:34:22.147Z,21.90
2018-08-18T05:36:50.943Z,21.90
2018-08-18T05:39:19.742Z,21.90
2018-08-18T05:41:49.002Z,22.00
2018-08-18T05:44:17.789Z,22.10
2018-08-18T05:46:47.607Z,22.20
2018-08-18T05:49:17.050Z,22.20
2018-08-18T05:51:48.671Z,22.30
2018-08-18T05:54:24.679Z,22.30
2018-08-18T05:56:53.503Z,22.40
2018-08-18T05:59:22.366Z,22.40
2018-08-18T06:01:51.270Z,22.40
2018-08-18T06:04:21.350Z,22.40
2018-08-18T06:06:51.002Z,22.50
2018-08-18T06:09:21.134Z,22.50
2018-08-18T06:11:49.997Z,22.50
2018-08-18T06:14:19.285Z,22.50
2018-08-18T06:16:48.154Z,22.60
2018-08-18T06:19:24.240Z,22.60
2018-08-18T06:21:53.784Z,22.60
2018-08-18T06:24:22.579Z,22.70
2018-08-18T06:26:51.407Z,22.80
2018-08-18T06:29:20.250Z,22.90
2018-08-18T06:32:02.252Z,22.90
2018-08-18T06:34:33.299Z,23.00
2018-08-18T06:37:02.232Z,23.10
2018-08-18T06:39:51.016Z,23.20
2018-08-18T06:42:45.792Z,23.30
2018-08-18T06:45:18.655Z,23.30
2018-08-18T06:47:47.493Z,23.40
2018-08-18T06:50:17.395Z,23.50
2018-08-18T06:52:46.807Z,23.60
2018-08-18T06:55:17.060Z,23.60
2018-08-18T06:57:49.711Z,23.70
2018-08-18T07:00:20.680Z,23.70
2018-08-18T07:02:49.539Z,23.70
2018-08-18T07:05:19.709Z,23.90
2018-08-18T07:07:49.345Z,23.90
2018-08-18T07:10:32.905Z,24.00
2018-08-18T07:13:04.051Z,24.00
2018-08-18T07:15:35.695Z,24.00
2018-08-18T07:18:06.578Z,24.10
2018-08-18T07:20:35.664Z,24.10
2018-08-18T07:23:04.588Z,24.20
2018-08-18T07:25:33.412Z,24.30
2018-08-18T07:28:07.573Z,24.40
2018-08-18T07:30:36.683Z,24.50
2018-08-18T07:33:05.622Z,24.60
2018-08-18T07:35:35.946Z,24.70
2018-08-18T07:38:04.883Z,24.70
2018-08-18T07:40:46.100Z,24.80
2018-08-18T07:43:19.976Z,24.90
2018-08-18T07:45:49.522Z,24.90
2018-08-18T07:48:18.330Z,24.90
2018-08-18T07:50:47.154Z,25.00
2018-08-18T07:53:16.201Z,25.10
2018-08-18T07:55:44.889Z,25.10
2018-08-18T07:58:16.033Z,25.20
2018-08-18T08:00:44.942Z,25.30
2018-08-18T08:03:14.941Z,25.40
2018-08-18T08:05:43.982Z,25.40
2018-08-18T08:08:13.234Z,25.40
2018-08-18T08:10:42.205Z,25.50
2018-08-18T08:13:11.810Z,25.50
2018-08-18T08:15:41.297Z,25.50
2018-08-18T08:18:12.693Z,25.60
2018-08-18T08:20:42.206Z,25.60
2018-08-18T08:23:11.309Z,25.70
2018-08-18T08:25:40.145Z,25.70
2018-08-18T08:28:08.992Z,25.80
2018-08-18T08:30:37.824Z,25.90
2018-08-18T08:33:06.624Z,25.90
2018-08-18T08:35:38.171Z,26.00
2018-08-18T08:38:07.009Z,26.00
2018-08-18T08:40:35.879Z,26.10
2018-08-18T08:43:04.709Z,26.20
2018-08-18T08:45:33.589Z,26.30
2018-08-18T08:48:02.455Z,26.30
2018-08-18T08:50:31.284Z,26.40
2018-08-18T08:53:00.111Z,26.50
2018-08-18T08:55:29.550Z,26.50
2018-08-18T08:57:58.470Z,26.60
2018-08-18T09:00:27.275Z,26.70
2018-08-18T09:02:56.065Z,26.80
2018-08-18T09:05:25.159Z,26.80
2018-08-18T09:07:53.969Z,26.90
2018-08-18T09:10:22.813Z,27.00
2018-08-18T09:12:51.604Z,27.10
2018-08-18T09:15:20.429Z,27.20
2018-08-18T09:17:49.332Z,27.30
2018-08-18T09:20:19.888Z,27.40
2018-08-18T09:22:56.778Z,27.40
2018-08-18T09:25:27.731Z,27.50
2018-08-18T09:28:00.888Z,27.50
2018-08-18T09:30:30.908Z,27.50
2018-08-18T09:33:03.472Z,27.60
2018-08-18T09:35:53.669Z,27.60
2018-08-18T09:38:22.694Z,27.60
2018-08-18T09:40:52.398Z,27.60
2018-08-18T09:43:23.859Z,27.70
2018-08-18T09:45:54.408Z,27.70
2018-08-18T09:48:24.317Z,27.70
2018-08-18T09:50:53.758Z,27.70
2018-08-18T09:53:23.512Z,27.80
2018-08-18T09:55:52.780Z,27.80
2018-08-18T09:58:21.643Z,27.90
2018-08-18T10:00:50.465Z,27.90
2018-08-18T10:03:19.307Z,27.90
2018-08-18T10:05:48.126Z,27.90
2018-08-18T10:08:16.927Z,27.90
2018-08-18T10:10:45.749Z,28.00
2018-08-18T10:13:14.827Z,28.00
2018-08-18T10:15:43.687Z,28.00
2018-08-18T10:18:13.627Z,28.10
2018-08-18T10:20:50.816Z,28.20
2018-08-18T10:23:20.150Z,28.30
2018-08-18T10:25:49.038Z,28.40
2018-08-18T10:28:19.353Z,28.50
2018-08-18T10:30:48.192Z,28.60
2018-08-18T10:33:16.991Z,28.80
2018-08-18T10:35:46.727Z,28.90
2018-08-18T10:38:15.698Z,29.00
2018-08-18T10:40:44.589Z,29.10
2018-08-18T10:43:13.395Z,29.20
2018-08-18T10:45:44.162Z,29.20
2018-08-18T10:48:14.445Z,29.30
2018-08-18T10:51:59.246Z,29.30
2018-08-18T10:54:28.073Z,29.30
2018-08-18T10:56:56.883Z,29.30
2018-08-18T10:59:43.287Z,29.20
2018-08-18T11:02:12.146Z,29.20
2018-08-18T11:04:40.976Z,29.20
2018-08-18T11:07:09.822Z,29.20
2018-08-18T11:09:38.633Z,29.20
2018-08-18T11:12:07.435Z,29.10
2018-08-18T11:14:36.275Z,29.10
2018-08-18T11:17:05.081Z,29.10
2018-08-18T11:19:33.888Z,29.10
2018-08-18T11:22:24.996Z,29.10
2018-08-18T11:24:54.269Z,29.10
2018-08-18T11:27:23.071Z,29.10
2018-08-18T11:29:52.486Z,29.10
2018-08-18T11:32:21.303Z,29.10
2018-08-18T11:34:50.671Z,29.10
2018-08-18T11:37:19.906Z,29.10
2018-08-18T11:39:53.855Z,29.00
2018-08-18T11:42:23.016Z,29.00
2018-08-18T11:44:52.603Z,29.00
2018-08-18T11:47:21.417Z,29.00
2018-08-18T11:49:56.915Z,29.00
2018-08-18T11:52:25.746Z,29.00
2018-08-18T11:54:54.606Z,29.00
2018-08-18T11:57:23.463Z,29.00
2018-08-18T11:59:52.890Z,29.00
2018-08-18T12:02:22.069Z,29.00
2018-08-18T12:04:51.232Z,29.10
2018-08-18T12:07:20.060Z,29.10
2018-08-18T12:09:52.802Z,29.20
2018-08-18T12:12:22.505Z,29.20
2018-08-18T12:14:51.341Z,29.20
2018-08-18T12:17:20.174Z,29.20
2018-08-18T12:19:50.870Z,29.20
2018-08-18T12:22:19.708Z,29.20
2018-08-18T12:24:53.924Z,29.20
2018-08-18T12:27:22.753Z,29.30
2018-08-18T12:29:51.734Z,29.30
2018-08-18T12:32:25.892Z,29.30
2018-08-18T12:34:56.455Z,29.40
2018-08-18T12:37:27.420Z,29.40
2018-08-18T12:39:57.988Z,29.50
2018-08-18T12:42:27.747Z,29.50
2018-08-18T12:44:57.536Z,29.60
2018-08-18T12:47:26.336Z,29.50
2018-08-18T12:49:55.204Z,29.50
2018-08-18T12:52:23.967Z,29.60
2018-08-18T12:54:52.771Z,29.60
2018-08-18T12:57:38.805Z,29.50
2018-08-18T13:00:08.534Z,29.60
2018-08-18T13:02:46.535Z,29.60
2018-08-18T13:05:15.593Z,29.50
2018-08-18T13:07:45.243Z,29.50
2018-08-18T13:10:23.517Z,29.40
2018-08-18T13:12:53.220Z,29.40
2018-08-18T13:15:22.151Z,29.40
2018-08-18T13:17:51.260Z,29.40
2018-08-18T13:20:23.234Z,29.40
2018-08-18T13:22:52.056Z,29.50
2018-08-18T13:25:20.941Z,29.50
2018-08-18T13:27:53.862Z,29.60
2018-08-18T13:30:23.442Z,29.60
2018-08-18T13:32:54.705Z,29.70
2018-08-18T13:35:23.539Z,29.80
2018-08-18T13:37:53.219Z,29.90
2018-08-18T13:40:25.982Z,30.00
2018-08-18T13:42:55.763Z,30.00
2018-08-18T13:45:45.075Z,30.10
2018-08-18T13:48:14.639Z,30.10
2018-08-18T13:50:43.433Z,30.20
2018-08-18T13:53:12.546Z,30.20
2018-08-18T13:55:42.168Z,30.20
2018-08-18T13:58:12.790Z,30.30
2018-08-18T14:00:41.651Z,30.30
2018-08-18T14:03:26.035Z,30.30
2018-08-18T14:05:55.651Z,30.40
2018-08-18T14:08:24.507Z,30.40
2018-08-18T14:10:53.363Z,30.40
2018-08-18T14:13:23.198Z,30.50
2018-08-18T14:15:56.157Z,30.50
2018-08-18T14:18:25.204Z,30.50
2018-08-18T14:21:04.785Z,30.60
2018-08-18T14:23:33.600Z,30.60
2018-08-18T14:26:02.422Z,30.70
2018-08-18T14:28:31.281Z,30.70
2018-08-18T14:31:01.062Z,30.70
2018-08-18T14:33:30.354Z,30.70
2018-08-18T14:36:05.357Z,30.80
2018-08-18T14:38:35.342Z,30.80
2018-08-18T14:41:04.189Z,30.80
2018-08-18T14:43:37.009Z,30.80
2018-08-18T14:46:09.298Z,30.80
2018-08-18T14:48:39.305Z,30.80
2018-08-18T14:51:08.560Z,30.80
2018-08-18T14:53:41.440Z,30.80
2018-08-18T14:56:10.336Z,30.80
2018-08-18T14:58:42.715Z,30.90
2018-08-18T15:01:12.727Z,30.90
2018-08-18T15:03:42.213Z,30.90
2018-08-18T15:06:12.464Z,31.00
2018-08-18T15:08:41.582Z,31.00
2018-08-18T15:11:10.347Z,31.00
2018-08-18T15:13:39.153Z,31.00
2018-08-18T15:16:07.981Z,31.00
2018-08-18T15:18:37.747Z,31.10
2018-08-18T15:21:07.125Z,31.00
2018-08-18T15:23:35.866Z,31.00
2018-08-18T15:26:05.729Z,30.90
2018-08-18T15:28:34.827Z,30.90
2018-08-18T15:31:03.631Z,30.80
2018-08-18T15:33:32.423Z,30.70
2018-08-18T15:36:01.232Z,30.70
2018-08-18T15:38:43.786Z,30.60
2018-08-18T15:41:12.939Z,30.50
2018-08-18T15:43:41.754Z,30.50
2018-08-18T15:46:10.571Z,30.50
2018-08-18T15:48:41.643Z,30.50
2018-08-18T15:51:10.601Z,31.20
2018-08-18T15:53:49.891Z,30.50
2018-08-18T15:56:19.754Z,30.50
2018-08-18T15:58:49.451Z,30.50
2018-08-18T16:01:19.098Z,30.40
2018-08-18T16:03:47.899Z,30.30
2018-08-18T16:06:16.701Z,30.30
2018-08-18T16:08:46.055Z,30.20
2018-08-18T16:11:15.257Z,30.20
2018-08-18T16:13:44.176Z,30.10
2018-08-18T16:16:12.893Z,30.10
2018-08-18T16:18:41.726Z,30.10
2018-08-18T16:21:14.745Z,30.00
2018-08-18T16:23:44.041Z,29.90
2018-08-18T16:26:13.521Z,29.90
2018-08-18T16:28:43.423Z,29.80
2018-08-18T16:31:13.551Z,29.70
2018-08-18T16:33:42.743Z,29.70
2018-08-18T16:36:11.614Z,29.70
2018-08-18T16:38:40.731Z,29.60
2018-08-18T16:41:09.552Z,29.60
2018-08-18T16:43:38.549Z,29.70
2018-08-18T16:46:31.250Z,29.60
2018-08-18T16:49:01.079Z,29.60
2018-08-18T16:51:29.888Z,29.60
2018-08-18T16:54:19.062Z,29.60
2018-08-18T16:56:47.913Z,29.60
2018-08-18T16:59:16.740Z,29.60
2018-08-18T17:01:45.576Z,29.60
2018-08-18T17:04:18.769Z,29.50
2018-08-18T17:06:47.912Z,29.50
2018-08-18T17:09:40.175Z,29.50
2018-08-18T17:12:17.635Z,29.60
2018-08-18T17:14:46.537Z,29.50
2018-08-18T17:17:15.414Z,29.50
2018-08-18T17:19:45.063Z,29.50
2018-08-18T17:22:15.406Z,29.50
2018-08-18T17:24:44.193Z,29.50
2018-08-18T17:27:13.644Z,29.50
2018-08-18T17:29:44.155Z,29.50
2018-08-18T17:32:12.946Z,29.50
2018-08-18T17:34:41.746Z,29.50
2018-08-18T17:37:10.546Z,29.50
2018-08-18T17:39:39.654Z,29.50
2018-08-18T17:42:08.480Z,29.50
2018-08-18T17:44:37.322Z,29.40
2018-08-18T17:47:11.078Z,29.40
2018-08-18T17:49:46.517Z,29.40
2018-08-18T17:52:15.359Z,29.40
2018-08-18T17:54:59.341Z,29.30
2018-08-18T17:57:28.171Z,29.20
2018-08-18T17:59:56.987Z,29.10
2018-08-18T18:02:25.802Z,29.10
2018-08-18T18:05:00.325Z,29.00
2018-08-18T18:07:29.126Z,28.90
2018-08-18T18:09:57.922Z,28.90
2018-08-18T18:12:27.596Z,28.80
2018-08-18T18:14:56.703Z,28.80
2018-08-18T18:17:25.955Z,28.70
2018-08-18T18:19:57.432Z,28.60
2018-08-18T18:22:36.830Z,28.60
2018-08-18T18:25:07.259Z,28.50
2018-08-18T18:27:36.088Z,28.50
2018-08-18T18:30:05.000Z,28.40
2018-08-18T18:32:33.825Z,28.30
2018-08-18T18:35:02.682Z,28.20
2018-08-18T18:37:31.431Z,28.20
2018-08-18T18:40:03.405Z,28.10
2018-08-18T18:42:32.225Z,28.10
2018-08-18T18:45:01.030Z,28.00
2018-08-18T18:47:30.374Z,27.90
2018-08-18T18:49:59.178Z,27.90
2018-08-18T18:52:28.030Z,27.90
2018-08-18T18:54:58.240Z,27.80
2018-08-18T18:57:27.129Z,27.80
2018-08-18T18:59:56.978Z,27.70
2018-08-18T19:02:38.149Z,27.60
2018-08-18T19:05:21.866Z,27.60
2018-08-18T19:08:00.785Z,27.50
2018-08-18T19:10:29.770Z,27.50
2018-08-18T19:12:58.588Z,27.40
2018-08-18T19:15:28.250Z,27.40
2018-08-18T19:17:57.062Z,27.30
2018-08-18T19:20:28.140Z,27.30
2018-08-18T19:23:05.539Z,27.20
2018-08-18T19:25:35.351Z,27.20
2018-08-18T19:28:04.185Z,27.10
2018-08-18T19:30:33.849Z,27.10
2018-08-18T19:33:02.944Z,27.00
2018-08-18T19:35:36.829Z,27.00
2018-08-18T19:38:06.334Z,27.00
2018-08-18T19:40:36.685Z,26.90
2018-08-18T19:43:11.878Z,26.80
2018-08-18T19:45:40.714Z,26.80
2018-08-18T19:48:09.870Z,26.80
2018-08-18T19:50:43.696Z,26.70
2018-08-18T19:53:12.473Z,26.60
2018-08-18T19:55:41.292Z,26.60
2018-08-18T19:58:10.161Z,26.50
2018-08-18T20:00:38.991Z,26.50
2018-08-18T20:03:09.180Z,26.40
2018-08-18T20:05:38.289Z,26.40
2018-08-18T20:08:07.141Z,26.30
2018-08-18T20:11:11.073Z,26.30
2018-08-18T20:13:39.920Z,26.20
2018-08-18T20:16:08.758Z,26.20
2018-08-18T20:18:37.646Z,26.10
2018-08-18T20:21:06.462Z,26.10
2018-08-18T20:23:35.304Z,26.00
2018-08-18T20:26:04.574Z,26.00
2018-08-18T20:28:33.395Z,26.00
2018-08-18T20:31:02.961Z,25.90
2018-08-18T20:33:31.766Z,25.90
2018-08-18T20:36:00.576Z,25.90
2018-08-18T20:38:33.529Z,25.80
2018-08-18T20:41:02.819Z,25.80
2018-08-18T20:43:31.615Z,25.80
2018-08-18T20:46:01.715Z,25.80
2018-08-18T20:48:31.087Z,25.70
2018-08-18T20:50:59.813Z,25.70
2018-08-18T20:53:28.674Z,25.60
2018-08-18T20:55:59.814Z,25.60
2018-08-18T20:58:29.363Z,25.60
2018-08-18T21:00:58.189Z,25.50
2018-08-18T21:03:58.774Z,25.50
2018-08-18T21:06:27.599Z,25.50
2018-08-18T21:08:56.463Z,25.50
2018-08-18T21:11:25.311Z,25.40
2018-08-18T21:13:54.787Z,25.40
2018-08-18T21:16:23.839Z,25.40
2018-08-18T21:18:52.842Z,25.30
2018-08-18T21:21:32.701Z,25.30
2018-08-18T21:24:01.876Z,25.30
2018-08-18T21:26:31.518Z,25.30
2018-08-18T21:29:00.347Z,25.20
2018-08-18T21:31:32.935Z,25.20
2018-08-18T21:34:02.829Z,25.20
2018-08-18T21:36:32.261Z,25.10
2018-08-18T21:39:05.549Z,25.10
2018-08-18T21:41:37.942Z,25.10
2018-08-18T21:44:08.976Z,25.10
2018-08-18T21:46:38.175Z,25.00
2018-08-18T21:49:07.122Z,25.00
2018-08-18T21:51:35.960Z,25.00
2018-08-18T21:54:04.798Z,25.00
2018-08-18T21:56:38.131Z,25.00
2018-08-18T21:59:09.111Z,25.00
2018-08-18T22:01:37.933Z,25.00
2018-08-18T22:04:07.487Z,25.00
2018-08-18T22:06:36.331Z,24.90
2018-08-18T22:09:21.780Z,24.90
2018-08-18T22:11:50.667Z,24.90
2018-08-18T22:14:19.733Z,24.90
2018-08-18T22:16:54.270Z,24.80
2018-08-18T22:19:23.218Z,24.80
2018-08-18T22:21:52.113Z,24.80
2018-08-18T22:24:20.993Z,24.80
2018-08-18T22:26:50.289Z,24.70
2018-08-18T22:29:23.229Z,24.80
2018-08-18T22:31:52.539Z,24.70
2018-08-18T22:34:21.391Z,24.70
2018-08-18T22:36:50.504Z,24.70
2018-08-18T22:39:19.411Z,24.70
2018-08-18T22:41:48.813Z,24.60
2018-08-18T22:44:17.620Z,24.60
2018-08-18T22:46:46.443Z,24.60
2018-08-18T22:49:15.256Z,24.50
2018-08-18T22:51:45.081Z,24.50
2018-08-18T22:54:13.926Z,24.50
2018-08-18T22:56:47.366Z,24.50
2018-08-18T22:59:16.194Z,24.40
2018-08-18T23:01:45.014Z,24.40
2018-08-18T23:04:29.691Z,24.40
2018-08-18T23:06:59.725Z,24.40
2018-08-18T23:09:30.956Z,24.40
2018-08-18T23:12:01.629Z,24.30
2018-08-18T23:14:34.427Z,24.30
2018-08-18T23:17:03.586Z,24.30
2018-08-18T23:19:33.165Z,24.20
2018-08-18T23:22:02.351Z,24.20
2018-08-18T23:24:36.626Z,24.20
2018-08-18T23:27:05.713Z,24.20
2018-08-18T23:29:34.527Z,24.20
2018-08-18T23:32:14.736Z,24.20
2018-08-18T23:34:43.526Z,24.20
2018-08-18T23:37:16.560Z,24.20
2018-08-18T23:39:45.394Z,24.10
2018-08-18T23:42:19.502Z,24.10
2018-08-18T23:44:49.118Z,24.10
2018-08-18T23:47:18.360Z,24.10
2018-08-18T23:49:47.813Z,24.10
2018-08-18T23:52:16.830Z,24.10
2018-08-18T23:54:45.652Z,24.00
2018-08-18T23:57:16.968Z,24.00
2018-08-18T23:59:46.154Z,24.00
